Time;durP1;ratioP1;P1;durP2;ratioP2;P2;SDS_P1;SDS_P2;PMS_P1;PMS_P2;Temp;Humidity;BMP_temperature;BMP_pressure;BME280_temperature;BME280_humidity;BME280_pressure;Samples;Min_cycle;Max_cycle;Signal;HPM_P1;HPM_P2
2024/05/02 00:00:15;;;;;;;3.30;1.60;;;;;;;;;;5252179;27;19999;-89
2024/05/02 00:02:42;;;;;;;2.35;1.45;;;;;;;;;;5222585;27;19998;-87
2024/05/02 00:05:08;;;;;;;2.28;1.50;;;;;;;;;;5253428;27;20488;-87
2024/05/02 00:07:34;;;;;;;6.20;1.67;;;;;;;;;;5196615;27;19995;-86
2024/05/02 00:10:00;;;;;;;5.43;1.67;;;;;;;;;;5222417;27;20073;-89
2024/05/02 00:12:26;;;;;;;7.13;2.15;;;;;;;;;;5221599;27;20043;-87
2024/05/02 00:14:52;;;;;;;3.28;1.33;;;;;;;;;;5250845;27;19999;-89
2024/05/02 00:17:19;;;;;;;2.47;1.27;;;;;;;;;;5221727;27;19995;-89
2024/05/02 00:19:46;;;;;;;2.97;1.38;;;;;;;;;;5221411;27;20043;-87
2024/05/02 00:22:12;;;;;;;3.58;1.30;;;;;;;;;;5222270;27;19998;-86
2024/05/02 00:24:39;;;;;;;2.47;1.45;;;;;;;;;;5222609;27;20023;-88
2024/05/02 00:27:07;;;;;;;2.65;1.42;;;;;;;;;;5251079;27;20015;-90
2024/05/02 00:29:33;;;;;;;2.38;1.40;;;;;;;;;;5250320;27;20014;-88
2024/05/02 00:31:59;;;;;;;3.63;1.40;;;;;;;;;;5250111;27;19995;-87
2024/05/02 00:34:25;;;;;;;2.05;1.42;;;;;;;;;;5252557;27;20051;-90
2024/05/02 00:36:51;;;;;;;1.65;1.27;;;;;;;;;;5238639;27;19990;-88
2024/05/02 00:39:17;;;;;;;3.72;1.45;;;;;;;;;;5291562;27;19994;-89
2024/05/02 00:41:43;;;;;;;3.17;1.38;;;;;;;;;;5289454;27;20022;-88
2024/05/02 00:44:09;;;;;;;4.38;1.30;;;;;;;;;;5287414;27;20014;-88
2024/05/02 00:46:36;;;;;;;2.28;1.25;;;;;;;;;;5287674;27;19995;-89
2024/05/02 00:49:02;;;;;;;6.53;1.30;;;;;;;;;;5286829;27;20014;-88
2024/05/02 00:51:28;;;;;;;4.57;1.95;;;;;;;;;;5287377;27;19994;-88
2024/05/02 00:53:55;;;;;;;2.58;1.63;;;;;;;;;;5285004;27;20002;-89
2024/05/02 00:56:21;;;;;;;2.50;1.08;;;;;;;;;;5285209;27;19994;-88
2024/05/02 00:58:47;;;;;;;2.28;1.25;;;;;;;;;;5286121;27;20002;-87
2024/05/02 01:01:13;;;;;;;2.13;1.08;;;;;;;;;;5285257;27;19995;-89
2024/05/02 01:03:39;;;;;;;4.13;1.25;;;;;;;;;;5284725;27;19998;-89
2024/05/02 01:06:05;;;;;;;2.65;1.20;;;;;;;;;;5283849;27;20336;-89
2024/05/02 01:08:31;;;;;;;2.42;1.50;;;;;;;;;;5283765;27;20009;-88
2024/05/02 01:10:58;;;;;;;2.88;1.25;;;;;;;;;;5284032;27;20467;-88
2024/05/02 01:13:24;;;;;;;2.40;1.60;;;;;;;;;;5287263;27;20002;-88
2024/05/02 01:15:50;;;;;;;1.63;1.30;;;;;;;;;;5285651;27;20005;-88
2024/05/02 01:18:16;;;;;;;2.83;1.40;;;;;;;;;;5287145;27;20002;-89
2024/05/02 01:20:42;;;;;;;3.10;1.20;;;;;;;;;;5288986;27;19998;-87
2024/05/02 01:23:08;;;;;;;2.88;1.45;;;;;;;;;;5295567;27;20356;-88
2024/05/02 01:25:34;;;;;;;2.83;1.10;;;;;;;;;;5296669;27;20002;-87
2024/05/02 01:28:00;;;;;;;4.78;1.50;;;;;;;;;;5296711;27;20415;-86
2024/05/02 01:30:26;;;;;;;3.03;1.30;;;;;;;;;;5287854;27;20457;-88
2024/05/02 01:32:52;;;;;;;3.33;1.38;;;;;;;;;;5288927;27;20432;-88
2024/05/02 01:35:18;;;;;;;3.58;1.30;;;;;;;;;;5287420;27;20455;-88
2024/05/02 01:37:44;;;;;;;2.45;1.45;;;;;;;;;;5284550;27;20013;-90
2024/05/02 01:40:11;;;;;;;1.20;1.08;;;;;;;;;;5285051;27;20002;-89
2024/05/02 01:42:37;;;;;;;1.50;1.02;;;;;;;;;;5286297;27;20010;-90
2024/05/02 01:45:03;;;;;;;3.80;1.38;;;;;;;;;;5284038;27;19994;-90
2024/05/02 01:47:29;;;;;;;3.92;1.30;;;;;;;;;;5284428;27;19998;-88
2024/05/02 01:49:55;;;;;;;3.97;1.42;;;;;;;;;;5286686;27;20042;-88
2024/05/02 01:52:21;;;;;;;3.50;1.50;;;;;;;;;;5285310;27;20001;-88
2024/05/02 01:54:47;;;;;;;4.63;1.50;;;;;;;;;;5286104;27;20452;-88
2024/05/02 01:57:13;;;;;;;2.20;1.10;;;;;;;;;;5284364;27;20006;-89
2024/05/02 01:59:39;;;;;;;8.13;1.95;;;;;;;;;;5287918;27;20449;-89
2024/05/02 02:02:05;;;;;;;4.00;1.48;;;;;;;;;;5285103;27;19998;-88
2024/05/02 02:04:32;;;;;;;2.45;1.48;;;;;;;;;;5298081;27;20013;-87
2024/05/02 02:06:58;;;;;;;3.58;1.70;;;;;;;;;;5299980;27;19997;-88
2024/05/02 02:09:24;;;;;;;2.78;1.30;;;;;;;;;;5292163;27;20030;-88
2024/05/02 02:11:50;;;;;;;3.05;1.33;;;;;;;;;;5287315;27;20002;-86
2024/05/02 02:14:16;;;;;;;9.80;2.05;;;;;;;;;;5285428;27;20002;-88
2024/05/02 02:16:42;;;;;;;5.50;1.73;;;;;;;;;;5283947;27;20010;-87
2024/05/02 02:19:08;;;;;;;4.53;1.67;;;;;;;;;;5285668;27;20042;-88
2024/05/02 02:21:35;;;;;;;2.92;1.50;;;;;;;;;;5285756;27;20009;-89
2024/05/02 02:24:01;;;;;;;3.67;1.38;;;;;;;;;;5285388;27;20042;-89
2024/05/02 02:26:27;;;;;;;2.55;1.60;;;;;;;;;;5285963;27;20002;-88
2024/05/02 02:28:53;;;;;;;4.05;1.40;;;;;;;;;;5286157;27;20010;-88
2024/05/02 02:31:19;;;;;;;5.07;1.40;;;;;;;;;;5283581;27;20462;-89
2024/05/02 02:33:45;;;;;;;3.25;1.45;;;;;;;;;;5284303;27;20079;-90
2024/05/02 02:36:11;;;;;;;5.05;1.73;;;;;;;;;;5277613;27;19999;-89
2024/05/02 02:38:37;;;;;;;2.28;1.30;;;;;;;;;;5222031;27;19991;-88
2024/05/02 02:41:05;;;;;;;2.20;1.40;;;;;;;;;;5251092;27;20007;-88
2024/05/02 02:43:31;;;;;;;2.45;1.50;;;;;;;;;;5221911;27;20011;-86
2024/05/02 02:45:57;;;;;;;4.97;1.50;;;;;;;;;;5252279;27;19999;-87
2024/05/02 02:48:23;;;;;;;3.65;1.58;;;;;;;;;;5251746;27;20002;-87
2024/05/02 02:50:49;;;;;;;4.30;1.40;;;;;;;;;;5220611;27;19999;-89
2024/05/02 02:53:15;;;;;;;3.95;1.40;;;;;;;;;;5250853;27;20009;-87
2024/05/02 02:55:41;;;;;;;2.13;1.38;;;;;;;;;;5221942;27;20007;-87
2024/05/02 02:58:08;;;;;;;2.72;1.63;;;;;;;;;;5222560;27;20015;-89
2024/05/02 03:00:34;;;;;;;1.30;1.10;;;;;;;;;;5223161;27;20003;-88
2024/05/02 03:03:00;;;;;;;3.83;1.50;;;;;;;;;;5222183;27;20006;-83
2024/05/02 03:05:26;;;;;;;5.07;1.50;;;;;;;;;;5222738;27;20072;-88
2024/05/02 03:07:52;;;;;;;1.90;1.25;;;;;;;;;;5251614;27;20030;-87
2024/05/02 03:10:18;;;;;;;3.50;1.45;;;;;;;;;;5221323;27;20508;-90
2024/05/02 03:12:49;;;;;;;4.10;1.40;;;;;;;;;;5251499;27;20007;-87
2024/05/02 03:15:15;;;;;;;2.92;1.23;;;;;;;;;;5251295;27;20019;-87
2024/05/02 03:17:41;;;;;;;5.53;1.60;;;;;;;;;;5251183;27;20003;-90
2024/05/02 03:20:07;;;;;;;2.97;1.33;;;;;;;;;;5222957;27;19999;-90
2024/05/02 03:22:33;;;;;;;2.45;1.40;;;;;;;;;;5251926;27;20006;-88
2024/05/02 03:24:59;;;;;;;2.85;1.63;;;;;;;;;;5222327;27;20102;-88
2024/05/02 03:27:27;;;;;;;3.08;1.30;;;;;;;;;;5250517;27;20074;-88
2024/05/02 03:29:53;;;;;;;3.83;1.30;;;;;;;;;;5220868;27;20082;-90
2024/05/02 03:32:19;;;;;;;1.98;1.33;;;;;;;;;;5222544;27;20031;-88
2024/05/02 03:34:46;;;;;;;5.30;1.40;;;;;;;;;;5223569;27;20014;-88
2024/05/02 03:37:12;;;;;;;3.38;1.50;;;;;;;;;;5240903;27;20368;-89
2024/05/02 03:39:38;;;;;;;5.50;1.60;;;;;;;;;;5285034;27;20030;-89
2024/05/02 03:42:04;;;;;;;2.47;1.42;;;;;;;;;;5282782;27;20002;-89
2024/05/02 03:44:30;;;;;;;2.78;1.75;;;;;;;;;;5283086;27;20011;-89
2024/05/02 03:46:56;;;;;;;3.45;1.90;;;;;;;;;;5283023;27;19998;-87
2024/05/02 03:49:22;;;;;;;7.03;1.58;;;;;;;;;;5286203;27;20042;-90
2024/05/02 03:51:48;;;;;;;2.55;1.40;;;;;;;;;;5285276;27;20002;-88
2024/05/02 03:54:15;;;;;;;6.30;1.42;;;;;;;;;;5286056;27;20038;-89
2024/05/02 03:56:41;;;;;;;3.70;1.50;;;;;;;;;;5286507;27;19998;-89
2024/05/02 03:59:07;;;;;;;2.72;1.33;;;;;;;;;;5284897;27;20536;-89
2024/05/02 04:01:33;;;;;;;1.50;1.27;;;;;;;;;;5288037;27;19994;-90
2024/05/02 04:03:59;;;;;;;2.33;1.40;;;;;;;;;;5289287;27;19998;-88
2024/05/02 04:06:25;;;;;;;4.05;1.90;;;;;;;;;;5287117;27;20006;-89
2024/05/02 04:08:52;;;;;;;2.10;1.30;;;;;;;;;;5288168;27;20002;-88
2024/05/02 04:11:18;;;;;;;8.35;1.30;;;;;;;;;;5292967;27;19994;-87
2024/05/02 04:13:44;;;;;;;2.38;1.50;;;;;;;;;;5294338;27;19994;-89
2024/05/02 04:16:10;;;;;;;3.03;1.35;;;;;;;;;;5290493;27;20004;-86
2024/05/02 04:18:36;;;;;;;15.32;2.05;;;;;;;;;;5290976;27;20026;-90
2024/05/02 04:21:02;;;;;;;8.23;1.33;;;;;;;;;;5293690;27;19998;-89
2024/05/02 04:23:28;;;;;;;2.55;1.55;;;;;;;;;;5293079;27;19986;-89
2024/05/02 04:25:54;;;;;;;4.43;1.13;;;;;;;;;;5290334;27;20009;-88
2024/05/02 04:28:20;;;;;;;3.42;1.42;;;;;;;;;;5290342;27;20013;-87
2024/05/02 04:30:46;;;;;;;4.10;1.65;;;;;;;;;;5289865;27;20006;-88
2024/05/02 04:33:12;;;;;;;2.78;1.40;;;;;;;;;;5292649;27;20002;-86
2024/05/02 04:35:39;;;;;;;4.32;1.30;;;;;;;;;;5291235;27;20006;-86
2024/05/02 04:38:07;;;;;;;2.63;1.25;;;;;;;;;;5260029;27;20014;-89
2024/05/02 04:40:33;;;;;;;3.30;1.40;;;;;;;;;;5230846;27;20432;-86
2024/05/02 04:42:59;;;;;;;2.75;1.35;;;;;;;;;;5228939;27;20003;-87
2024/05/02 04:45:25;;;;;;;1.25;1.10;;;;;;;;;;5227205;27;20047;-89
2024/05/02 04:47:51;;;;;;;4.20;1.80;;;;;;;;;;5229043;27;20014;-90
2024/05/02 04:50:17;;;;;;;4.28;1.40;;;;;;;;;;5259000;27;20429;-87
2024/05/02 04:52:43;;;;;;;3.25;1.25;;;;;;;;;;5262354;27;20011;-88
2024/05/02 04:55:09;;;;;;;4.13;1.50;;;;;;;;;;5229295;27;20494;-89
2024/05/02 04:57:35;;;;;;;2.85;1.70;;;;;;;;;;5228519;27;20019;-87
2024/05/02 05:00:03;;;;;;;4.10;1.70;;;;;;;;;;5257568;27;20046;-89
2024/05/02 05:02:29;;;;;;;4.15;1.77;;;;;;;;;;5260547;27;20055;-90
2024/05/02 05:04:55;;;;;;;3.25;1.50;;;;;;;;;;5259046;27;19995;-88
2024/05/02 05:07:21;;;;;;;2.42;1.30;;;;;;;;;;5258112;27;20074;-88
2024/05/02 05:09:48;;;;;;;5.25;1.42;;;;;;;;;;5260712;27;19987;-89
2024/05/02 05:12:37;;;;;;;6.50;1.50;;;;;;;;;;5203035;27;19999;-88
2024/05/02 05:15:05;;;;;;;8.27;1.40;;;;;;;;;;5258852;27;20051;-89
2024/05/02 05:17:32;;;;;;;4.57;1.55;;;;;;;;;;5231033;27;20069;-88
2024/05/02 05:19:59;;;;;;;2.47;1.30;;;;;;;;;;5261045;27;19999;-89
2024/05/02 05:22:25;;;;;;;4.03;1.15;;;;;;;;;;5261211;27;19999;-88
2024/05/02 05:24:54;;;;;;;4.70;1.60;;;;;;;;;;5261594;27;20003;-87
2024/05/02 05:27:22;;;;;;;2.95;1.27;;;;;;;;;;5260470;27;19995;-88
2024/05/02 05:29:57;;;;;;;3.08;1.35;;;;;;;;;;5259374;27;19999;-89
2024/05/02 05:32:24;;;;;;;10.25;1.80;;;;;;;;;;5205151;27;20010;-89
2024/05/02 05:34:50;;;;;;;2.20;1.38;;;;;;;;;;5259040;27;20055;-88
2024/05/02 05:37:16;;;;;;;4.82;1.40;;;;;;;;;;5246539;27;20032;-88
2024/05/02 05:39:43;;;;;;;3.78;1.25;;;;;;;;;;5289405;27;20003;-89
2024/05/02 05:42:09;;;;;;;9.68;2.08;;;;;;;;;;5290639;27;20044;-88
2024/05/02 05:44:38;;;;;;;3.47;1.52;;;;;;;;;;5288255;27;20013;-85
2024/05/02 05:47:04;;;;;;;4.65;1.70;;;;;;;;;;5281589;27;20030;-86
2024/05/02 05:49:30;;;;;;;4.88;1.23;;;;;;;;;;5283556;27;20010;-87
2024/05/02 05:51:57;;;;;;;5.07;1.60;;;;;;;;;;5295830;27;20006;-81
2024/05/02 05:54:24;;;;;;;4.90;1.65;;;;;;;;;;5300065;27;20001;-84
2024/05/02 05:56:51;;;;;;;5.55;2.05;;;;;;;;;;5298296;27;19994;-88
2024/05/02 05:59:17;;;;;;;7.90;1.98;;;;;;;;;;5292053;27;19994;-87
2024/05/02 06:01:43;;;;;;;3.20;1.33;;;;;;;;;;5289208;27;20063;-88
2024/05/02 06:04:09;;;;;;;6.80;1.50;;;;;;;;;;5288203;27;20026;-86
2024/05/02 06:06:35;;;;;;;2.35;1.60;;;;;;;;;;5288334;27;19999;-86
2024/05/02 06:09:01;;;;;;;4.72;1.33;;;;;;;;;;5286030;27;20448;-85
2024/05/02 06:11:28;;;;;;;4.82;1.50;;;;;;;;;;5288540;27;20006;-85
2024/05/02 06:13:54;;;;;;;5.80;1.50;;;;;;;;;;5231243;27;20002;-85
2024/05/02 06:16:20;;;;;;;9.85;1.88;;;;;;;;;;5285220;27;20447;-79
2024/05/02 06:18:46;;;;;;;10.27;1.70;;;;;;;;;;5281896;27;20010;-81
2024/05/02 06:21:12;;;;;;;2.83;1.48;;;;;;;;;;5283315;27;19994;-81
2024/05/02 06:23:39;;;;;;;4.97;1.58;;;;;;;;;;5281083;27;20014;-82
2024/05/02 06:26:06;;;;;;;5.30;1.40;;;;;;;;;;5284362;27;20002;-81
2024/05/02 06:28:34;;;;;;;5.70;1.52;;;;;;;;;;5254423;27;20014;-83
2024/05/02 06:31:01;;;;;;;9.30;1.30;;;;;;;;;;5283341;27;20014;-85
2024/05/02 06:33:27;;;;;;;3.45;1.48;;;;;;;;;;5281790;27;20006;-84
2024/05/02 06:35:53;;;;;;;8.32;1.60;;;;;;;;;;5290270;27;20006;-81
2024/05/02 06:38:19;;;;;;;2.85;1.60;;;;;;;;;;5287545;27;20009;-83
2024/05/02 06:40:45;;;;;;;7.03;1.50;;;;;;;;;;5286390;27;20020;-86
2024/05/02 06:43:11;;;;;;;2.85;1.80;;;;;;;;;;5282697;27;20444;-84
2024/05/02 06:45:37;;;;;;;7.90;1.80;;;;;;;;;;5284507;27;19998;-87
2024/05/02 06:48:05;;;;;;;4.97;1.42;;;;;;;;;;5281388;27;20002;-85
2024/05/02 06:50:31;;;;;;;4.85;1.83;;;;;;;;;;5284786;27;20006;-81
2024/05/02 06:52:57;;;;;;;2.25;1.30;;;;;;;;;;5283286;27;20002;-82
2024/05/02 06:55:23;;;;;;;4.45;1.48;;;;;;;;;;5281964;27;20013;-84
2024/05/02 06:57:49;;;;;;;4.13;1.35;;;;;;;;;;5281336;27;20002;-81
2024/05/02 07:00:16;;;;;;;4.75;1.75;;;;;;;;;;5284044;27;20076;-83
2024/05/02 07:02:42;;;;;;;2.97;1.52;;;;;;;;;;5285034;27;19998;-80
2024/05/02 07:05:08;;;;;;;2.63;1.10;;;;;;;;;;5281499;27;20013;-81
2024/05/02 07:07:34;;;;;;;5.25;1.83;;;;;;;;;;5282979;27;20054;-82
2024/05/02 07:10:00;;;;;;;2.00;1.60;;;;;;;;;;5283516;27;20002;-80
2024/05/02 07:12:26;;;;;;;7.28;1.67;;;;;;;;;;5283778;27;20045;-82
2024/05/02 07:14:52;;;;;;;4.05;1.73;;;;;;;;;;5283733;27;20459;-86
2024/05/02 07:17:18;;;;;;;5.43;1.70;;;;;;;;;;5283373;27;20113;-85
2024/05/02 07:19:46;;;;;;;5.13;1.75;;;;;;;;;;5283653;27;20002;-80
2024/05/02 07:22:12;;;;;;;5.22;1.77;;;;;;;;;;5281716;27;19995;-86
2024/05/02 07:24:38;;;;;;;7.80;1.75;;;;;;;;;;5283346;27;20009;-83
2024/05/02 07:27:04;;;;;;;3.15;1.58;;;;;;;;;;5281835;27;19994;-79
2024/05/02 07:29:30;;;;;;;4.22;1.80;;;;;;;;;;5284820;27;20014;-82
2024/05/02 07:31:56;;;;;;;6.15;1.70;;;;;;;;;;5283819;27;20013;-84
2024/05/02 07:34:22;;;;;;;7.10;2.20;;;;;;;;;;5282745;27;20076;-85
2024/05/02 07:36:48;;;;;;;2.67;1.60;;;;;;;;;;5275333;27;19995;-85
2024/05/02 07:39:14;;;;;;;4.57;1.55;;;;;;;;;;5285668;27;20435;-82
2024/05/02 07:41:40;;;;;;;7.28;1.88;;;;;;;;;;5283599;27;20005;-80
2024/05/02 07:44:06;;;;;;;5.85;1.75;;;;;;;;;;5285631;27;20005;-82
2024/05/02 07:46:33;;;;;;;3.95;1.48;;;;;;;;;;5283575;27;20131;-80
2024/05/02 07:48:59;;;;;;;6.18;1.98;;;;;;;;;;5254202;27;20080;-80
2024/05/02 07:51:25;;;;;;;3.22;1.45;;;;;;;;;;5284117;27;19998;-82
2024/05/02 07:53:51;;;;;;;5.53;2.33;;;;;;;;;;5283945;27;20006;-79
2024/05/02 07:56:17;;;;;;;5.30;1.83;;;;;;;;;;5252472;27;20002;-80
2024/05/02 07:58:43;;;;;;;5.18;1.80;;;;;;;;;;5283044;27;20010;-78
2024/05/02 08:01:09;;;;;;;4.78;1.67;;;;;;;;;;5283434;27;19994;-79
2024/05/02 08:03:38;;;;;;;1.80;1.35;;;;;;;;;;5282066;27;19998;-80
2024/05/02 08:06:07;;;;;;;4.10;1.55;;;;;;;;;;5283341;27;20042;-82
2024/05/02 08:08:33;;;;;;;7.63;1.58;;;;;;;;;;5282537;27;20013;-82
2024/05/02 08:10:59;;;;;;;4.10;1.80;;;;;;;;;;5282627;27;20014;-79
2024/05/02 08:13:25;;;;;;;5.07;1.98;;;;;;;;;;5283482;27;20061;-82
2024/05/02 08:15:51;;;;;;;6.57;1.63;;;;;;;;;;5284203;27;19998;-81
2024/05/02 08:18:17;;;;;;;4.63;1.63;;;;;;;;;;5285286;27;19998;-83
2024/05/02 08:20:43;;;;;;;4.55;1.67;;;;;;;;;;5283549;27;20038;-79
2024/05/02 08:23:09;;;;;;;4.38;1.83;;;;;;;;;;5253623;27;20310;-85
2024/05/02 08:25:36;;;;;;;4.40;1.50;;;;;;;;;;5256379;27;20410;-83
2024/05/02 08:28:03;;;;;;;3.38;1.80;;;;;;;;;;5254391;27;20440;-83
2024/05/02 08:30:30;;;;;;;4.97;1.90;;;;;;;;;;5284155;27;19998;-80
2024/05/02 08:32:56;;;;;;;3.17;1.80;;;;;;;;;;5284170;27;20329;-81
2024/05/02 08:35:22;;;;;;;3.38;2.03;;;;;;;;;;5253913;27;20002;-81
2024/05/02 08:37:48;;;;;;;7.50;2.25;;;;;;;;;;5253573;27;20335;-79
2024/05/02 08:40:14;;;;;;;3.78;1.92;;;;;;;;;;5283169;27;20456;-82
2024/05/02 08:42:45;;;;;;;16.70;2.30;;;;;;;;;;5283446;27;20001;-84
2024/05/02 08:45:13;;;;;;;6.43;1.83;;;;;;;;;;5254306;27;19998;-81
2024/05/02 08:47:47;;;;;;;8.07;2.40;;;;;;;;;;5282635;27;20076;-79
2024/05/02 08:50:13;;;;;;;7.55;2.17;;;;;;;;;;5281555;27;20031;-78
2024/05/02 08:52:40;;;;;;;4.70;2.22;;;;;;;;;;5282693;27;20023;-82
2024/05/02 08:55:06;;;;;;;7.47;1.90;;;;;;;;;;5224219;27;20005;-82
2024/05/02 08:57:33;;;;;;;6.65;2.47;;;;;;;;;;5252638;27;20006;-81
2024/05/02 09:00:00;;;;;;;8.48;2.53;;;;;;;;;;5281456;27;20008;-81
2024/05/02 09:02:26;;;;;;;4.55;1.73;;;;;;;;;;5252362;27;20034;-79
2024/05/02 09:04:52;;;;;;;6.20;2.00;;;;;;;;;;5252991;27;20009;-81
2024/05/02 09:07:19;;;;;;;12.30;1.90;;;;;;;;;;5283854;27;20344;-80
2024/05/02 09:09:45;;;;;;;4.18;2.20;;;;;;;;;;5282434;27;20428;-80
2024/05/02 09:12:11;;;;;;;5.30;2.10;;;;;;;;;;5283850;27;20002;-82
2024/05/02 09:14:37;;;;;;;4.28;1.88;;;;;;;;;;5284436;27;20356;-81
2024/05/02 09:17:03;;;;;;;6.72;2.78;;;;;;;;;;5285162;27;20009;-79
2024/05/02 09:19:29;;;;;;;8.15;2.22;;;;;;;;;;5254030;27;19998;-80
2024/05/02 09:21:55;;;;;;;16.40;3.30;;;;;;;;;;5283028;27;20403;-79
2024/05/02 09:24:22;;;;;;;4.75;1.90;;;;;;;;;;5281943;27;20339;-82
2024/05/02 09:26:48;;;;;;;6.35;2.00;;;;;;;;;;5282516;27;20029;-81
2024/05/02 09:29:14;;;;;;;4.70;2.15;;;;;;;;;;5253504;27;19998;-78
2024/05/02 09:31:40;;;;;;;7.00;2.15;;;;;;;;;;5287230;27;20022;-80
2024/05/02 09:34:07;;;;;;;4.13;1.67;;;;;;;;;;5259741;27;20005;-79
2024/05/02 09:36:33;;;;;;;8.15;2.17;;;;;;;;;;5276197;27;20035;-81
2024/05/02 09:39:02;;;;;;;5.15;2.22;;;;;;;;;;5221753;27;20007;-80
2024/05/02 09:41:29;;;;;;;5.95;1.98;;;;;;;;;;5251650;27;20106;-79
2024/05/02 09:44:00;;;;;;;3.42;1.95;;;;;;;;;;5247200;27;19999;-79
2024/05/02 09:46:26;;;;;;;5.95;1.75;;;;;;;;;;5246445;27;20070;-84
2024/05/02 09:48:56;;;;;;;5.22;1.80;;;;;;;;;;5216717;27;20086;-81
2024/05/02 09:51:23;;;;;;;6.00;2.15;;;;;;;;;;5217330;27;19998;-79
2024/05/02 09:53:52;;;;;;;9.00;2.28;;;;;;;;;;5246815;27;20106;-78
2024/05/02 09:56:18;;;;;;;10.52;1.80;;;;;;;;;;5246309;27;20447;-78
2024/05/02 09:58:45;;;;;;;6.90;1.75;;;;;;;;;;5246652;27;20035;-80
2024/05/02 10:01:13;;;;;;;3.33;1.92;;;;;;;;;;5217610;27;20002;-79
2024/05/02 10:03:39;;;;;;;6.97;2.17;;;;;;;;;;5246389;27;19999;-80
2024/05/02 10:06:05;;;;;;;5.38;1.80;;;;;;;;;;5216494;27;20392;-79
2024/05/02 10:08:39;;;;;;;3.30;1.73;;;;;;;;;;5216993;27;19995;-78
2024/05/02 10:11:05;;;;;;;;;;;;;;;;;;5217161;27;20007;-81
2024/05/02 10:13:31;;;;;;;9.77;2.05;;;;;;;;;;5217111;27;19928;-80
2024/05/02 10:15:57;;;;;;;6.53;2.50;;;;;;;;;;5246916;27;19999;-80
2024/05/02 10:18:23;;;;;;;9.43;2.30;;;;;;;;;;5246861;27;19991;-82
2024/05/02 10:20:51;;;;;;;4.50;2.55;;;;;;;;;;5217956;27;20003;-80
2024/05/02 10:23:18;;;;;;;4.90;1.80;;;;;;;;;;5248437;27;19995;-79
2024/05/02 10:25:51;;;;;;;7.30;1.80;;;;;;;;;;5220692;27;20483;-80
2024/05/02 10:28:30;;;;;;;10.50;2.30;;;;;;;;;;5250756;27;20005;-83
2024/05/02 10:31:09;;;;;;;9.05;2.13;;;;;;;;;;5247500;27;20006;-80
2024/05/02 10:33:36;;;;;;;10.00;1.60;;;;;;;;;;5247891;27;20007;-81
2024/05/02 10:36:11;;;;;;;5.70;2.00;;;;;;;;;;5248081;27;20448;-81
2024/05/02 10:38:38;;;;;;;4.43;2.22;;;;;;;;;;5247813;27;19995;-81
2024/05/02 10:41:04;;;;;;;3.70;2.10;;;;;;;;;;5248872;27;20018;-82
2024/05/02 10:43:32;;;;;;;5.38;1.90;;;;;;;;;;5248848;27;20007;-80
2024/05/02 10:46:01;;;;;;;3.88;1.65;;;;;;;;;;5248158;27;20003;-78
2024/05/02 10:48:27;;;;;;;4.63;2.05;;;;;;;;;;5248324;27;19995;-80
2024/05/02 10:50:54;;;;;;;6.43;2.00;;;;;;;;;;5219437;27;20015;-84
2024/05/02 10:53:20;;;;;;;2.97;1.92;;;;;;;;;;5249575;27;20014;-83
2024/05/02 10:55:46;;;;;;;4.32;1.73;;;;;;;;;;5219160;27;20023;-82
2024/05/02 10:58:12;;;;;;;5.15;1.90;;;;;;;;;;5217991;27;20007;-82
2024/05/02 11:00:39;;;;;;;6.47;1.90;;;;;;;;;;5215486;27;20035;-80
2024/05/02 11:03:05;;;;;;;5.20;1.80;;;;;;;;;;5247063;27;19998;-80
2024/05/02 11:05:31;;;;;;;3.90;1.83;;;;;;;;;;5190537;27;20389;-82
2024/05/02 11:07:57;;;;;;;3.03;1.95;;;;;;;;;;5216956;27;19999;-79
2024/05/02 11:10:26;;;;;;;5.47;1.70;;;;;;;;;;5217223;27;20003;-81
2024/05/02 11:12:53;;;;;;;5.15;1.90;;;;;;;;;;5246370;27;20063;-79
2024/05/02 11:15:20;;;;;;;5.10;1.60;;;;;;;;;;5246050;27;20464;-80
2024/05/02 11:17:47;;;;;;;5.88;1.92;;;;;;;;;;5244945;27;20022;-80
2024/05/02 11:20:13;;;;;;;6.85;1.90;;;;;;;;;;5218534;27;20003;-81
2024/05/02 11:22:45;;;;;;;9.25;2.05;;;;;;;;;;5247323;27;20010;-80
2024/05/02 11:25:11;;;;;;;14.98;2.15;;;;;;;;;;5245614;27;19995;-81
2024/05/02 11:27:44;;;;;;;6.85;1.98;;;;;;;;;;5216247;27;20014;-81
2024/05/02 11:30:10;;;;;;;7.47;2.25;;;;;;;;;;5247285;27;19999;-80
2024/05/02 11:32:38;;;;;;;3.63;1.70;;;;;;;;;;5247002;27;20011;-80
2024/05/02 11:35:04;;;;;;;6.97;2.33;;;;;;;;;;5215549;27;20007;-80
2024/05/02 11:37:30;;;;;;;5.75;1.70;;;;;;;;;;5237859;27;20035;-80
2024/05/02 11:39:56;;;;;;;4.90;2.20;;;;;;;;;;5248440;27;19998;-79
2024/05/02 11:42:22;;;;;;;7.22;2.00;;;;;;;;;;5277659;27;20444;-82
2024/05/02 11:44:49;;;;;;;4.18;2.00;;;;;;;;;;5277773;27;20507;-80
2024/05/02 11:47:15;;;;;;;4.13;2.13;;;;;;;;;;5277106;27;19998;-80
2024/05/02 11:49:41;;;;;;;4.53;2.17;;;;;;;;;;5279454;27;20006;-80
2024/05/02 11:52:07;;;;;;;2.75;1.60;;;;;;;;;;5279715;27;20009;-79
2024/05/02 11:54:33;;;;;;;6.97;1.90;;;;;;;;;;5278229;27;20033;-79
2024/05/02 11:56:59;;;;;;;14.38;2.70;;;;;;;;;;5279255;27;19998;-82
2024/05/02 11:59:25;;;;;;;3.13;1.70;;;;;;;;;;5277774;27;20073;-80
2024/05/02 12:01:51;;;;;;;5.57;2.05;;;;;;;;;;5279228;27;20447;-81
2024/05/02 12:04:18;;;;;;;5.00;2.17;;;;;;;;;;5279336;27;20050;-80
2024/05/02 12:06:46;;;;;;;5.95;2.03;;;;;;;;;;5280060;27;20008;-79
2024/05/02 12:09:12;;;;;;;4.70;1.88;;;;;;;;;;5249714;27;20014;-80
2024/05/02 12:11:38;;;;;;;6.65;1.98;;;;;;;;;;5249295;27;20002;-81
2024/05/02 12:14:05;;;;;;;4.22;2.00;;;;;;;;;;5277708;27;20005;-80
2024/05/02 12:16:32;;;;;;;4.25;1.80;;;;;;;;;;5277456;27;19998;-80
2024/05/02 12:18:58;;;;;;;2.92;1.55;;;;;;;;;;5279049;27;20009;-79
2024/05/02 12:21:24;;;;;;;5.00;2.10;;;;;;;;;;5276120;27;19998;-80
2024/05/02 12:23:50;;;;;;;8.52;1.85;;;;;;;;;;5277532;27;20355;-83
2024/05/02 12:26:16;;;;;;;2.30;2.10;;;;;;;;;;5278477;27;20010;-85
2024/05/02 12:28:42;;;;;;;6.05;1.67;;;;;;;;;;5279519;27;19998;-79
2024/05/02 12:31:08;;;;;;;4.07;1.98;;;;;;;;;;5281580;27;20311;-80
2024/05/02 12:33:36;;;;;;;5.18;1.95;;;;;;;;;;5281112;27;19998;-82
2024/05/02 12:36:02;;;;;;;9.80;2.63;;;;;;;;;;5253752;27;20013;-80
2024/05/02 12:38:28;;;;;;;11.43;2.00;;;;;;;;;;5283161;27;19999;-80
2024/05/02 12:40:54;;;;;;;5.38;2.08;;;;;;;;;;5280304;27;20018;-79
2024/05/02 12:43:20;;;;;;;6.72;2.88;;;;;;;;;;5282360;27;20001;-86
2024/05/02 12:45:56;;;;;;;6.40;1.80;;;;;;;;;;5281168;27;19998;-83
2024/05/02 12:48:22;;;;;;;3.90;2.17;;;;;;;;;;5282842;27;20009;-80
2024/05/02 12:50:49;;;;;;;7.97;2.25;;;;;;;;;;5283729;27;20009;-79
2024/05/02 12:53:15;;;;;;;5.22;2.13;;;;;;;;;;5279306;27;19995;-80
2024/05/02 12:55:41;;;;;;;7.70;2.33;;;;;;;;;;5279274;27;19998;-80
2024/05/02 12:58:07;;;;;;;5.80;2.00;;;;;;;;;;5278939;27;20018;-82
2024/05/02 13:00:33;;;;;;;4.65;2.13;;;;;;;;;;5281124;27;20010;-81
2024/05/02 13:02:59;;;;;;;7.80;2.20;;;;;;;;;;5281478;27;20022;-81
2024/05/02 13:05:28;;;;;;;7.78;2.03;;;;;;;;;;5282032;27;20081;-79
2024/05/02 13:07:54;;;;;;;3.47;1.83;;;;;;;;;;5281311;27;20026;-80
2024/05/02 13:10:20;;;;;;;6.90;1.70;;;;;;;;;;5280243;27;20361;-81
2024/05/02 13:12:46;;;;;;;2.85;1.60;;;;;;;;;;5280333;27;20009;-82
2024/05/02 13:15:12;;;;;;;5.13;2.05;;;;;;;;;;5280039;27;20013;-78
2024/05/02 13:17:39;;;;;;;7.32;2.25;;;;;;;;;;5252075;27;20034;-79
2024/05/02 13:20:05;;;;;;;6.75;1.88;;;;;;;;;;5279946;27;20511;-78
2024/05/02 13:22:31;;;;;;;2.65;2.05;;;;;;;;;;5279884;27;20158;-80
2024/05/02 13:24:57;;;;;;;4.80;2.00;;;;;;;;;;5278662;27;19994;-81
2024/05/02 13:27:23;;;;;;;5.50;1.90;;;;;;;;;;5281131;27;19998;-79
2024/05/02 13:29:49;;;;;;;4.80;2.08;;;;;;;;;;5281601;27;19994;-79
2024/05/02 13:32:16;;;;;;;5.00;1.95;;;;;;;;;;5280414;27;20072;-78
2024/05/02 13:34:42;;;;;;;8.38;2.22;;;;;;;;;;5279384;27;20005;-79
2024/05/02 13:37:09;;;;;;;5.45;2.17;;;;;;;;;;5268519;27;20013;-79
2024/05/02 13:39:35;;;;;;;6.32;2.00;;;;;;;;;;5282473;27;20451;-81
2024/05/02 13:42:01;;;;;;;6.95;2.05;;;;;;;;;;5253602;27;20463;-83
2024/05/02 13:44:27;;;;;;;4.18;1.90;;;;;;;;;;5283849;27;20002;-83
2024/05/02 13:46:54;;;;;;;7.75;2.10;;;;;;;;;;5252189;27;20017;-84
2024/05/02 13:49:20;;;;;;;4.03;2.10;;;;;;;;;;5282030;27;19994;-83
2024/05/02 13:51:47;;;;;;;7.43;2.10;;;;;;;;;;5253996;27;20031;-82
2024/05/02 13:54:14;;;;;;;7.80;2.13;;;;;;;;;;5283465;27;19994;-84
2024/05/02 13:56:41;;;;;;;7.30;1.88;;;;;;;;;;5284309;27;20013;-83
2024/05/02 13:59:07;;;;;;;3.55;1.90;;;;;;;;;;5252563;27;20005;-84
2024/05/02 14:01:34;;;;;;;6.13;2.15;;;;;;;;;;5252564;27;20466;-84
2024/05/02 14:04:00;;;;;;;10.93;2.30;;;;;;;;;;5253743;27;19998;-84
2024/05/02 14:06:27;;;;;;;7.30;1.80;;;;;;;;;;5285254;27;20009;-85
2024/05/02 14:08:53;;;;;;;3.60;1.90;;;;;;;;;;5252806;27;20042;-83
2024/05/02 14:11:19;;;;;;;5.20;2.00;;;;;;;;;;5282610;27;20343;-83
2024/05/02 14:13:46;;;;;;;5.20;1.95;;;;;;;;;;5254091;27;19994;-87
2024/05/02 14:16:12;;;;;;;10.93;2.50;;;;;;;;;;5284827;27;19998;-87
2024/05/02 14:18:38;;;;;;;5.88;2.35;;;;;;;;;;5255879;27;20010;-85
2024/05/02 14:21:04;;;;;;;7.03;2.20;;;;;;;;;;5283448;27;20003;-84
2024/05/02 14:23:30;;;;;;;2.88;2.08;;;;;;;;;;5282349;27;20328;-85
2024/05/02 14:25:56;;;;;;;5.43;2.53;;;;;;;;;;5282419;27;20011;-81
2024/05/02 14:28:22;;;;;;;5.00;2.42;;;;;;;;;;5282013;27;19999;-83
2024/05/02 14:30:49;;;;;;;3.45;2.17;;;;;;;;;;5253675;27;19995;-83
2024/05/02 14:33:15;;;;;;;8.30;2.42;;;;;;;;;;5253648;27;20014;-84
2024/05/02 14:35:46;;;;;;;8.77;2.35;;;;;;;;;;5253504;27;20009;-85
2024/05/02 14:38:12;;;;;;;4.80;1.85;;;;;;;;;;5250631;27;20007;-83